Webcam Weerstation Emmen Zuid-West Meer informatie Webcam Weerstation Emmen Zuid-West


Onweer radar Meer informatie blitzortung!


Regen radar  rain snow radar


Lokaal brand risico:
Gebaseerd op waardes van gisteren en vandaag
CBI


Regionaal brand risico: Meer informatie


Lokaal brand risico:
Gebaseerd op actuele waarde
CBI



Het weer levert geen direct gevaar op.    Er zijn geen waarschuwingen afgegeven.

METAR rapporten vliegvelden

   
ETWM - Meppen, Germany
Afstand tot: O 29 km
Gewijzigd: 24-09-2018 19:20
  
  
   Wind: varieert 5.6 km/h
Wind: varieert 5.6 km/h
Temperatuur: 9°C
Voelt als: 8°C
Dauwpunt: 6°C
Vochtigheid: 82%
Barometer: 1033 hPa
Zicht: meer dan 10 km
ETWM 241720Z AUTO VRB03KT 9999 // ////// 09/06 Q1033 ///
EHGG - Groningen/Eelde, Netherlands
Afstand tot: NNW 47 km
Gewijzigd: 24-09-2018 19:25
Grotendeels bewolkt  
Grotendeels bewolkt  
   Wind: WNW 13 km/h
Wind: WNW 13 km/h
Temperatuur: 10°C
Voelt als: 8°C
Dauwpunt: 7°C
Vochtigheid: 82%
Barometer: 1033 hPa
Bewolking: Grotendeels bewolkt
Zicht: meer dan 10 km
Bewolking: Licht bewolkt 1500 ft,
Grotendeels bewolkt 4200 ft,
Grotendeels bewolkt 4700 ft
EHGG 241725Z AUTO 30007KT 270V350 9999 FEW015CB BKN042 BKN047 10/07 Q1033 TEMPO 7000 -SHRA FEW030CB
EDDG - Muenster/Osnabru, Germany
Afstand tot: ZO 87 km
Gewijzigd: 24-09-2018 19:20
Licht bewolkt  
Licht bewolkt  
   Wind: Westen 7.4 km/h
Wind: Westen 7.4 km/h
Temperatuur: 9°C
Voelt als: 8°C
Dauwpunt: 6°C
Vochtigheid: 82%
Barometer: 1033 hPa
Bewolking: Licht bewolkt
Zicht: meer dan 10 km
Bewolking: Licht bewolkt 2800 ft
EDDG 241720Z 28004KT 250V320 9999 FEW028CB 09/06 Q1033 NOSIG
EHLW - Leeuwarden Rnlaf, Netherlands
Afstand tot: NW 93 km
Gewijzigd: 24-09-2018 19:25
Licht bewolkt  
Licht bewolkt  
   Wind: NW 20.4 km/h
Wind: NW 20.4 km/h
Temperatuur: 10°C
Voelt als: 7°C
Dauwpunt: 6°C
Vochtigheid: 76%
Barometer: 1033 hPa
Bewolking: Licht bewolkt
Zicht: meer dan 10 km
Bewolking: Licht bewolkt 3300 ft
EHLW 241725Z AUTO 32011KT 290V010 9999 FEW033 10/06 Q1033 BLU
ETNT - Wittmundhaven(Ga, Germany
Afstand tot: NNO 100 km
Gewijzigd: 24-09-2018 19:20
Gedeeltelijk bewolkt  
Gedeeltelijk bewolkt  
   Wind: Noorden 14.8 km/h
Wind: Noorden 14.8 km/h
Temperatuur: 11°C
Dauwpunt: 5°C
Vochtigheid: 67%
Barometer: 1032 hPa
Bewolking: Gedeeltelijk bewolkt
Zicht: meer dan 10 km
Bewolking: Gedeeltelijk bewolkt 4000 ft
ETNT 241720Z 36008KT 9999 SCT040TCU 11/05 Q1032 BLU+BLU+
ETND - Diepholz (ger-Af, Germany
Afstand tot: O 104 km
Gewijzigd: 24-09-2018 15:20
Verouderd
Gedeeltelijk bewolkt  
Gedeeltelijk bewolkt  
   Wind: NW 25.9 km/h<br />Gust to 25.9 km/h
Wind: NW 25.9 km/h
Gust to 25.9 km/h
Temperatuur: 11°C
Dauwpunt: 6°C
Vochtigheid: 72%
Barometer: 1030 hPa
Bewolking: Gedeeltelijk bewolkt
Zicht: meer dan 10 km
Bewolking: Gedeeltelijk bewolkt 3200 ft,
Gedeeltelijk bewolkt 8000 ft
ETND 241320Z 32014G25KT 9999 SCT032CB SCT080 11/06 Q1030 RETS BLU+
ETNT - Wittmundhaven(Ga, Germany
Afstand tot: NNO 102 km
Gewijzigd: 24-09-2018 19:20
Gedeeltelijk bewolkt  
Gedeeltelijk bewolkt  
   Wind: Noorden 14.8 km/h
Wind: Noorden 14.8 km/h
Temperatuur: 11°C
Dauwpunt: 5°C
Vochtigheid: 67%
Barometer: 1032 hPa
Bewolking: Gedeeltelijk bewolkt
Zicht: meer dan 10 km
Bewolking: Gedeeltelijk bewolkt 4000 ft
ETNT 241720Z 36008KT 9999 SCT040TCU 11/05 Q1032 BLU+BLU+
EHDL - Deelen Rnlafb, Netherlands
Afstand tot: ZW 103 km
Gewijzigd: 24-09-2018 19:25
Light Showers, Regen, Grotendeels bewolkt  
Light Showers, Regen, Grotendeels bewolkt  
   Wind: NNW 16.7 km/h
Wind: NNW 16.7 km/h
Temperatuur: 10°C
Voelt als: 8°C
Dauwpunt: 8°C
Vochtigheid: 88%
Barometer: 1035 hPa
Bewolking: Grotendeels bewolkt
Zicht: meer dan 10 km
Bewolking: Licht bewolkt 1500 ft,
Grotendeels bewolkt 3300 ft,
Grotendeels bewolkt 3900 ft
EHDL 241725Z AUTO 34009KT 290V020 9999 -SHRA FEW015CB BKN033 BKN039 10/08 Q1035 REDZ BLU
EHMA - Awg-1 Sea, Netherlands
Afstand tot: NW 105 km
Gewijzigd: 24-09-2018 19:25
Gedeeltelijk bewolkt  
Gedeeltelijk bewolkt  
   Wind: NW 44.4 km/h
Wind: NW 44.4 km/h
Temperatuur: 13°C
Dauwpunt: 5°C
Vochtigheid: 59%
Barometer: 1032 hPa
Bewolking: Gedeeltelijk bewolkt
Bewolking: Licht bewolkt 2900 ft,
Gedeeltelijk bewolkt 3300 ft
EHMA 241725Z AUTO 32024KT //// // FEW029 SCT033 13/05 Q1032 RE// W///H///
EDDW - Bremen, Germany
Afstand tot: ONO 135 km
Gewijzigd: 24-09-2018 19:20
Licht bewolkt  
Licht bewolkt  
   Wind: Noorden 11.1 km/h
Wind: Noorden 11.1 km/h
Temperatuur: 10°C
Voelt als: 8°C
Dauwpunt: 6°C
Vochtigheid: 76%
Barometer: 1031 hPa
Bewolking: Licht bewolkt
Zicht: meer dan 10 km
Bewolking: Licht bewolkt 3500 ft
EDDW 241720Z 35006KT 9999 FEW035CB 10/06 Q1031 NOSIG
EHVL - Vlieland Island, Netherlands
Afstand tot: WNW 138 km
Gewijzigd: 24-09-2018 19:25
Licht bewolkt  
Licht bewolkt  
   Wind: NNW 33.3 km/h
Wind: NNW 33.3 km/h
Temperatuur: 12°C
Dauwpunt: 7°C
Vochtigheid: 72%
Barometer: 1034 hPa
Bewolking: Licht bewolkt
Zicht: meer dan 10 km
Bewolking: Licht bewolkt 3100 ft
EHVL 241725Z AUTO 33018KT 9999 FEW031 12/07 Q1034 BLU
EDLV - Niederrhein, Germany
Afstand tot: ZZW 139 km
Gewijzigd: 24-09-2018 19:20
Helder  
Helder  
   Wind: NW 11.1 km/h
Wind: NW 11.1 km/h
Temperatuur: 13°C
Dauwpunt: 5°C
Vochtigheid: 59%
Barometer: 1035 hPa
Zicht: meer dan 10 km
Bewolking: Helder
EDLV 241720Z 31006KT 250V010 CAVOK 13/05 Q1035
EHKD - De Kooy (navy), Netherlands
Afstand tot: W 144 km
Gewijzigd: 24-09-2018 19:25
Licht bewolkt  
Licht bewolkt  
   Wind: NW 20.4 km/h
Wind: NW 20.4 km/h
Temperatuur: 13°C
Dauwpunt: 5°C
Vochtigheid: 59%
Barometer: 1034 hPa
Bewolking: Licht bewolkt
Zicht: meer dan 10 km
Bewolking: Licht bewolkt 3800 ft
EHKD 241725Z AUTO 31011KT 280V360 9999 FEW038 13/05 Q1034 BLU 31015KT 9999 SCT035 TEMPO 32015G25KT SCT025CB SCT030
EDLW - Dortmund/Wickede, Germany
Afstand tot: ZZO 150 km
Gewijzigd: 24-09-2018 19:20
Licht bewolkt  
Licht bewolkt  
   Wind: WNW 11.1 km/h
Wind: WNW 11.1 km/h
Temperatuur: 10°C
Voelt als: 8°C
Dauwpunt: 6°C
Vochtigheid: 76%
Barometer: 1033 hPa
Bewolking: Licht bewolkt
Zicht: meer dan 10 km
Bewolking: Licht bewolkt 1500 ft
EDLW 241720Z 30006KT 220V360 9999 FEW015 10/06 Q1033
EHVK - Volkel Rnlafb, Netherlands
Afstand tot: ZZW 149 km
Gewijzigd: 24-09-2018 19:25
Licht bewolkt  
Licht bewolkt  
   Wind: Noorden 5.6 km/h
Wind: Noorden 5.6 km/h
Temperatuur: 11°C
Dauwpunt: 6°C
Vochtigheid: 72%
Barometer: 1035 hPa
Bewolking: Licht bewolkt
Zicht: meer dan 10 km
Bewolking: Licht bewolkt 4200 ft
EHVK 241725Z AUTO 35003KT 320V020 9999 FEW042 11/06 Q1035 BLU
EDLW - Dortmund/Wickede, Germany
Afstand tot: ZZO 150 km
Gewijzigd: 24-09-2018 19:20
Licht bewolkt  
Licht bewolkt  
   Wind: WNW 11.1 km/h
Wind: WNW 11.1 km/h
Temperatuur: 10°C
Voelt als: 8°C
Dauwpunt: 6°C
Vochtigheid: 76%
Barometer: 1033 hPa
Bewolking: Licht bewolkt
Zicht: meer dan 10 km
Bewolking: Licht bewolkt 1500 ft
EDLW 241720Z 30006KT 220V360 9999 FEW015 10/06 Q1033
EHMG - L9-Ff-1 Sea, Netherlands
Afstand tot: NW 155 km
Gewijzigd: 24-09-2018 19:25
Licht bewolkt  
Licht bewolkt  
   Wind: NNW 44.4 km/h
Wind: NNW 44.4 km/h
Temperatuur: 12°C
Dauwpunt: 6°C
Vochtigheid: 67%
Barometer: 1034 hPa
Bewolking: Licht bewolkt
Zicht: meer dan 10 km
Bewolking: Licht bewolkt 2600 ft
EHMG 241725Z AUTO 33024KT 9999 FEW026 12/06 Q1034 W///H///
ETHB - Buckeburg(Ger-Ar, Germany
Afstand tot: OZO 161 km
Gewijzigd: 24-09-2018 19:20
Gedeeltelijk bewolkt  
Gedeeltelijk bewolkt  
   Wind: Noorden 14.8 km/h
Wind: Noorden 14.8 km/h
Temperatuur: 10°C
Voelt als: 8°C
Dauwpunt: 5°C
Vochtigheid: 71%
Barometer: 1032 hPa
Bewolking: Gedeeltelijk bewolkt
Zicht: meer dan 10 km
Bewolking: Licht bewolkt 1500 ft,
Gedeeltelijk bewolkt 2100 ft
ETHB 241720Z 01008KT 9999 FEW015 SCT021CB 10/05 Q1032 BLU+BLU+ TEMPO GRN
ETMN - Nordholz (ger-Na, Germany
Afstand tot: NO 164 km
Gewijzigd: 24-09-2018 19:20
Nearby Showers, Licht bewolkt  
Nearby Showers, Licht bewolkt  
   Wind: NNW 27.8 km/h
Wind: NNW 27.8 km/h
Temperatuur: 10°C
Voelt als: 7°C
Dauwpunt: 4°C
Vochtigheid: 67%
Barometer: 1030 hPa
Bewolking: Licht bewolkt
Zicht: meer dan 10 km
Bewolking: Licht bewolkt 2200 ft
ETMN 241720Z 33015KT 9999 VCSH FEW022CB 10/04 Q1030 BLU+BLU+ TEMPO GRN
EDDL - Duesseldorf, Germany
Afstand tot: Z 165 km
Gewijzigd: 24-09-2018 19:20
Licht bewolkt  
Licht bewolkt  
   Wind: NNW 13 km/h
Wind: NNW 13 km/h
Temperatuur: 12°C
Dauwpunt: 6°C
Vochtigheid: 67%
Barometer: 1034 hPa
Bewolking: Licht bewolkt
Zicht: meer dan 10 km
Bewolking: Licht bewolkt 3800 ft
EDDL 241720Z 34007KT 9999 FEW038 12/06 Q1034 RESHRA NOSIG
EDLN - Monchengladbach, Germany
Afstand tot: Z 174 km
Gewijzigd: 24-09-2018 19:20
Gedeeltelijk bewolkt  
Gedeeltelijk bewolkt  
   Wind: NNW 9.3 km/h
Wind: NNW 9.3 km/h
Temperatuur: 12°C
Dauwpunt: 5°C
Vochtigheid: 63%
Barometer: 1034 hPa
Bewolking: Gedeeltelijk bewolkt
Zicht: meer dan 10 km
Bewolking: Gedeeltelijk bewolkt 4700 ft
EDLN 241720Z 33005KT 9999 SCT047 12/05 Q1034

Script ontwikkeld door  Saratoga-weather.org Aangepast voor de template door  Weerstation Leuven

U vindt ons ook hier:

UK Metoffice

European Weather Network

WeatherCloud

Weather Underground

Benelux Weer Netwerk

AWEKAS

Citizen Weather Observer Program (CWOP)

HAMweather, WeatherForYou, PWS Weather

Wetterpage 24

Apparatuur in gebruik:

Weerstation
Davis VP2

Weerprogramma
Meteohub

Hardware
RaspberryPI, Wireless Weather Envoy, MeteoStick, TP-Link MR3020

Leverancier
Weerhuisje.nl weerstations

Davis VP2

Meteohub

RaspberryPI, Wireless Weather Envoy, MeteoStick, TP-Link MR3020

Weerhuisje.nl weerstations